»·PEaware :: N2442P KSAC-KRNO

N2442P :: KSAC-KRNO

FLIGHT INFORMATION

Flight Status: Arrived
Operator: Privately registered:
United States
More flights under this callsign
Pilot: Ken Q. (14290)
Aircraft: MOONEY M-20K/M ENCORE BRAVO
(M20T)
More flights by this aircraft type
Origin: KSAC Sacramento Executive
United States
Destination: KRNO Reno/Tahoe Intl
United States
More flights between these airports :: More routes between these airports
Route: KSAC SWR KRNO
File this flight plan on PilotEdge
Remarks: X
Altitude:
(Current/Filed)
11,500ft
Speed:
(Current/Filed)
165kts
Departed: 13-Oct-19 12:49 PM
Arrived: 13-Oct-19 01:30 PM
Distance/Time
Traveled:
0nm/0:40
Distance/Time
To Go:
Arrived

Flight Plot

Page will automatically refresh every two minutes.

Flight plan parsing failed; only flown route is shown


Map Options




Map Legend


Flown Route
Filed Route
Departure Airport
Arrival Airport
Navaid (VOR, NDB)
Fix

Horizontal Profiles

Position Reports

Time Latitude Longitude Heading Altitude Ground
Speed
13-Oct-19 12:11 38.514250 -121.498011 225 27ft 0kts
13-Oct-19 12:12 38.514250 -121.498011 225 27ft 0kts
13-Oct-19 12:13 38.514250 -121.498011 225 27ft 0kts
13-Oct-19 12:14 38.514250 -121.498011 225 27ft 0kts
13-Oct-19 12:15 38.514250 -121.498011 225 27ft 0kts
13-Oct-19 12:16 38.514250 -121.498011 225 27ft 0kts
13-Oct-19 12:17 38.514250 -121.498011 225 27ft 0kts
13-Oct-19 12:18 38.514250 -121.498011 225 27ft 0kts
13-Oct-19 12:19 38.514250 -121.498011 225 27ft 0kts
13-Oct-19 12:20 38.514250 -121.498011 225 27ft 0kts
13-Oct-19 12:21 38.514250 -121.498011 225 27ft 0kts
13-Oct-19 12:22 38.514250 -121.498011 225 27ft 0kts
13-Oct-19 12:23 38.514250 -121.498011 225 27ft 0kts
13-Oct-19 12:24 38.514250 -121.498011 225 27ft 0kts
13-Oct-19 12:25 38.514250 -121.498011 225 27ft 0kts
13-Oct-19 12:26 38.514250 -121.498011 225 27ft 0kts
13-Oct-19 12:27 38.514250 -121.498011 225 27ft 0kts
13-Oct-19 12:28 38.514250 -121.498011 225 27ft 0kts
13-Oct-19 12:29 38.514250 -121.498011 225 27ft 0kts
13-Oct-19 12:30 38.514250 -121.498011 225 27ft 0kts
13-Oct-19 12:31 38.514250 -121.498011 225 27ft 0kts
13-Oct-19 12:32 38.514250 -121.498012 225 27ft 0kts
13-Oct-19 12:33 38.514249 -121.498012 225 27ft 0kts
13-Oct-19 12:34 38.514249 -121.498013 225 27ft 0kts
13-Oct-19 12:35 38.514248 -121.498013 225 27ft 0kts
13-Oct-19 12:36 38.514248 -121.498014 225 27ft 0kts
13-Oct-19 12:37 38.514247 -121.498015 225 27ft 0kts
13-Oct-19 12:38 38.514247 -121.498015 225 27ft 0kts
13-Oct-19 12:39 38.514247 -121.498016 225 27ft 0kts
13-Oct-19 12:40 38.514246 -121.498016 225 27ft 0kts
13-Oct-19 12:41 38.514170 -121.497544 125 27ft 11kts
13-Oct-19 12:42 38.515646 -121.493775 33 27ft 14kts
13-Oct-19 12:43 38.518914 -121.491075 33 27ft 9kts
13-Oct-19 12:44 38.519429 -121.490265 285 27ft 0kts
13-Oct-19 12:45 38.519431 -121.490276 284 27ft 0kts
13-Oct-19 12:46 38.519181 -121.490237 108 27ft 0kts
13-Oct-19 12:47 38.518085 -121.489977 212 27ft 30kts
13-Oct-19 12:48 38.498318 -121.506006 211 464ft 107kts
13-Oct-19 12:49 38.492908 -121.477744 49 1120ft 133kts
13-Oct-19 12:50 38.517253 -121.439637 44 1722ft 142kts
13-Oct-19 12:51 38.548729 -121.408707 35 2394ft 139kts
13-Oct-19 12:52 38.573517 -121.373655 55 3179ft 134kts
13-Oct-19 12:53 38.595304 -121.333853 55 3695ft 140kts
13-Oct-19 12:54 38.618336 -121.292521 55 4191ft 143kts
13-Oct-19 12:55 38.642560 -121.251688 53 4699ft 145kts
13-Oct-19 12:56 38.668070 -121.210291 54 5196ft 148kts
13-Oct-19 12:57 38.692824 -121.168051 55 5693ft 147kts
13-Oct-19 12:58 38.717607 -121.126181 55 6188ft 147kts
13-Oct-19 12:59 38.742429 -121.084488 55 6686ft 147kts
13-Oct-19 13:00 38.767859 -121.041681 55 7190ft 156kts
13-Oct-19 13:01 38.793962 -120.995650 60 7703ft 162kts
13-Oct-19 13:02 38.817707 -120.945520 61 8205ft 165kts
13-Oct-19 13:03 38.842198 -120.895494 59 8698ft 164kts
13-Oct-19 13:04 38.867004 -120.846218 59 9199ft 164kts
13-Oct-19 13:05 38.892429 -120.795257 59 9408ft 179kts
13-Oct-19 13:06 38.920020 -120.739367 59 9419ft 187kts
13-Oct-19 13:07 38.948728 -120.683154 54 9454ft 189kts
13-Oct-19 13:08 38.980485 -120.628583 54 9460ft 190kts
13-Oct-19 13:09 39.012116 -120.574305 54 9469ft 189kts
13-Oct-19 13:10 39.043783 -120.519935 54 9476ft 189kts
13-Oct-19 13:11 39.075423 -120.465490 54 9483ft 191kts
13-Oct-19 13:12 39.107336 -120.410504 54 9483ft 191kts
13-Oct-19 13:13 39.139117 -120.355643 54 9490ft 190kts
13-Oct-19 13:14 39.165224 -120.299524 69 9689ft 184kts
13-Oct-19 13:15 39.191733 -120.242330 45 9552ft 195kts
13-Oct-19 13:16 39.242744 -120.214475 25 9058ft 205kts
13-Oct-19 13:17 39.284692 -120.174481 32 8610ft 205kts
13-Oct-19 13:18 39.333312 -120.141271 39 8493ft 193kts
13-Oct-19 13:19 39.361691 -120.085637 74 8490ft 186kts
13-Oct-19 13:20 39.389023 -120.033720 13 8483ft 187kts
13-Oct-19 13:21 39.436042 -120.018285 14 8193ft 198kts
13-Oct-19 13:22 39.485271 -119.989017 40 7816ft 193kts
13-Oct-19 13:23 39.511059 -119.936787 92 7200ft 162kts
13-Oct-19 13:24 39.516407 -119.882835 71 6577ft 141kts
13-Oct-19 13:25 39.533317 -119.839389 54 6030ft 129kts
13-Oct-19 13:26 39.548253 -119.798996 86 5370ft 123kts
13-Oct-19 13:27 39.534712 -119.769867 165 4997ft 92kts
13-Oct-19 13:28 39.509960 -119.769155 181 4459ft 84kts
13-Oct-19 13:29 39.500125 -119.769244 178 4418ft 17kts
13-Oct-19 13:30 39.497350 -119.766237 89 4418ft 10kts
13-Oct-19 13:31 39.500432 -119.765213 0 4418ft 14kts
13-Oct-19 13:32 39.501724 -119.764955 83 4418ft 0kts
13-Oct-19 13:33 39.501724 -119.764955 83 4418ft 0kts
13-Oct-19 13:34 39.501724 -119.764955 83 4418ft 0kts
13-Oct-19 13:35 38.514250 -121.498011 225 27ft 0kts

Navigation Log

Ident Type
Flight plan parsing failed, navigation log unavailable